Time;durP1;ratioP1;P1;durP2;ratioP2;P2;SDS_P1;SDS_P2;PMS_P1;PMS_P2;Temp;Humidity;BMP_temperature;BMP_pressure;BME280_temperature;BME280_humidity;BME280_pressure;Samples;Min_cycle;Max_cycle;Signal;HPM_P1;HPM_P2
2021/10/18 00:01:28;;;;;;;10.70;5.90;;;;;;;7.67;75.62;97077.89;1802921;78;21403;-81
2021/10/18 00:03:54;;;;;;;8.90;5.85;;;;;;;7.68;75.41;97076.11;1790516;78;21098;-81
2021/10/18 00:06:19;;;;;;;9.30;6.45;;;;;;;7.67;75.22;97066.25;1769850;78;21127;-82
2021/10/18 00:08:45;;;;;;;9.88;6.42;;;;;;;7.65;75.22;97072.05;1743758;79;21190;-81
2021/10/18 00:11:11;;;;;;;10.60;6.45;;;;;;;7.62;75.31;97072.32;1733252;79;21534;-81
2021/10/18 00:13:37;;;;;;;9.05;6.05;;;;;;;7.56;75.26;97076.80;1780764;78;21077;-81
2021/10/18 00:16:03;;;;;;;14.15;8.58;;;;;;;7.51;75.42;97067.37;1777953;79;21050;-82
2021/10/18 00:18:28;;;;;;;10.43;5.97;;;;;;;7.46;75.33;97063.91;1792691;78;21097;-81
2021/10/18 00:20:55;;;;;;;9.65;6.42;;;;;;;7.42;75.22;97063.88;1758110;79;21170;-81
2021/10/18 00:23:20;;;;;;;11.40;6.37;;;;;;;7.39;75.15;97064.66;1758612;78;21075;-82
2021/10/18 00:25:46;;;;;;;9.68;6.33;;;;;;;7.36;74.92;97061.06;1763751;79;21135;-82
2021/10/18 00:28:12;;;;;;;9.58;6.20;;;;;;;7.29;74.83;97063.88;1765552;77;21595;-81
2021/10/18 00:30:38;;;;;;;10.28;6.30;;;;;;;7.21;74.94;97061.55;1793871;77;21122;-81
2021/10/18 00:33:04;;;;;;;10.05;6.45;;;;;;;7.14;75.06;97061.77;1749265;78;21241;-81
2021/10/18 00:35:29;;;;;;;7.85;5.42;;;;;;;7.06;75.16;97067.34;1782614;78;21178;-81
2021/10/18 00:37:55;;;;;;;11.38;6.65;;;;;;;6.97;74.97;97065.12;1790180;77;21097;-81
2021/10/18 00:40:21;;;;;;;10.23;5.42;;;;;;;6.92;75.13;97075.07;1795271;77;22109;-82
2021/10/18 00:42:49;;;;;;;10.70;6.28;;;;;;;6.90;75.26;97067.47;1787515;77;21071;-81
2021/10/18 00:45:14;;;;;;;8.90;5.67;;;;;;;6.88;75.31;97071.16;1789847;77;21094;-81
2021/10/18 00:47:40;;;;;;;8.95;6.25;;;;;;;6.86;75.25;97064.02;1793392;77;21115;-81
2021/10/18 00:50:08;;;;;;;9.05;6.35;;;;;;;6.83;75.21;97069.45;1788638;77;21102;-81
2021/10/18 00:52:35;;;;;;;9.70;5.92;;;;;;;6.76;75.17;97069.21;1790726;78;21008;-81
2021/10/18 00:55:01;;;;;;;9.50;5.58;;;;;;;6.70;75.33;97067.20;1768472;78;21099;-81
2021/10/18 00:57:26;;;;;;;9.33;5.97;;;;;;;6.65;75.42;97066.79;1792832;77;21016;-81
2021/10/18 00:59:52;;;;;;;9.33;6.17;;;;;;;6.59;75.56;97069.47;1772810;79;21083;-81
2021/10/18 01:02:19;;;;;;;9.95;5.83;;;;;;;6.56;75.61;97070.23;1771925;76;21054;-82
2021/10/18 01:04:45;;;;;;;8.70;6.17;;;;;;;6.55;75.55;97066.02;1817398;77;21505;-81
2021/10/18 01:07:12;;;;;;;11.08;6.53;;;;;;;6.53;75.61;97064.88;1804743;77;21085;-82
2021/10/18 01:09:37;;;;;;;10.10;6.25;;;;;;;6.51;75.73;97068.55;1774620;76;21079;-82
2021/10/18 01:12:04;;;;;;;9.25;6.30;;;;;;;6.48;75.82;97071.38;1800416;77;21021;-81
2021/10/18 01:14:30;;;;;;;9.03;5.67;;;;;;;6.42;75.90;97069.37;1816963;77;21639;-81
2021/10/18 01:16:55;;;;;;;10.65;6.85;;;;;;;6.39;75.98;97070.95;1828171;77;21135;-81
2021/10/18 01:19:24;;;;;;;8.23;5.78;;;;;;;6.33;76.04;97071.81;1774858;78;21412;-81
2021/10/18 01:21:57;;;;;;;9.10;5.75;;;;;;;6.35;76.14;97068.31;1794334;79;21005;-81
2021/10/18 01:24:23;;;;;;;9.08;6.80;;;;;;;6.33;76.37;97067.13;1779510;78;21115;-81
2021/10/18 01:26:48;;;;;;;8.90;6.60;;;;;;;6.31;76.30;97069.04;1778734;79;21438;-81
2021/10/18 01:29:14;;;;;;;8.98;6.10;;;;;;;6.28;76.32;97061.10;1750884;80;21201;-82
2021/10/18 01:31:40;;;;;;;10.93;6.67;;;;;;;6.25;76.51;97064.44;1752030;79;21222;-81
2021/10/18 01:34:07;;;;;;;8.90;6.62;;;;;;;6.23;76.50;97068.93;1740800;80;21138;-81
2021/10/18 01:36:33;;;;;;;10.48;6.47;;;;;;;6.19;76.60;97067.11;1802605;77;21071;-81
2021/10/18 01:38:59;;;;;;;10.25;6.35;;;;;;;6.16;76.67;97064.77;1804462;77;21027;-81
2021/10/18 01:41:25;;;;;;;7.95;6.05;;;;;;;6.16;76.72;97066.55;1792102;78;21140;-81
2021/10/18 01:43:51;;;;;;;9.80;6.47;;;;;;;6.16;76.69;97066.06;1784608;78;20992;-82
2021/10/18 01:46:16;;;;;;;9.25;6.35;;;;;;;6.18;76.77;97073.67;1804504;77;21241;-81
2021/10/18 01:48:44;;;;;;;9.38;6.83;;;;;;;6.17;76.77;97074.14;1777312;77;21489;-81
2021/10/18 01:51:11;;;;;;;8.48;6.47;;;;;;;6.16;76.86;97076.39;1804393;77;21045;-81
2021/10/18 01:53:37;;;;;;;10.53;6.58;;;;;;;6.13;76.98;97075.38;1797407;76;21114;-81
2021/10/18 01:56:04;;;;;;;10.55;6.20;;;;;;;6.10;77.05;97072.26;1796233;77;21019;-81
2021/10/18 01:58:31;;;;;;;11.73;6.15;;;;;;;6.06;77.08;97073.02;1762612;79;21156;-81
2021/10/18 02:03:26;;;;;;;9.90;6.00;;;;;;;6.01;77.16;97064.38;1733325;81;21075;-81
2021/10/18 02:05:52;;;;;;;9.35;5.95;;;;;;;6.01;77.16;97072.11;1742601;80;21099;-81
2021/10/18 02:08:18;;;;;;;9.83;6.87;;;;;;;6.02;77.17;97070.38;1736119;81;21041;-81
2021/10/18 02:10:44;;;;;;;6.42;5.80;;;;;;;6.01;77.14;97067.43;1766541;78;21105;-81
2021/10/18 02:13:10;;;;;;;8.80;5.80;;;;;;;5.99;77.27;97069.34;1765466;79;21079;-82
2021/10/18 02:15:36;;;;;;;8.00;5.83;;;;;;;5.97;77.29;97073.82;1797475;78;21615;-81
2021/10/18 02:18:03;;;;;;;7.62;5.17;;;;;;;5.95;77.39;97073.14;1767608;78;21107;-81
2021/10/18 02:20:29;;;;;;;9.33;4.97;;;;;;;5.94;77.33;97072.33;1797962;77;21140;-81
2021/10/18 02:22:54;;;;;;;7.78;5.25;;;;;;;5.96;77.26;97073.48;1800132;78;21474;-81
2021/10/18 02:25:20;;;;;;;7.62;5.58;;;;;;;5.98;77.26;97079.31;1748220;79;21177;-81
2021/10/18 02:27:46;;;;;;;8.15;5.42;;;;;;;5.99;77.25;97076.59;1755042;78;21059;-82
2021/10/18 02:30:12;;;;;;;7.03;5.10;;;;;;;5.98;77.23;97072.87;1717009;81;21069;-81
2021/10/18 02:32:40;;;;;;;6.35;5.17;;;;;;;5.96;77.24;97067.03;1789417;78;21078;-81
2021/10/18 02:35:07;;;;;;;8.00;5.62;;;;;;;5.90;77.14;97068.41;1761003;77;21469;-81
2021/10/18 02:37:33;;;;;;;8.80;5.60;;;;;;;5.88;77.18;97061.25;1689401;80;21224;-81
2021/10/18 02:39:59;;;;;;;7.35;4.80;;;;;;;5.89;77.17;97064.16;1762616;80;21192;-82
2021/10/18 02:42:24;;;;;;;6.87;4.70;;;;;;;5.91;77.23;97064.05;1751796;80;21132;-81
2021/10/18 02:44:50;;;;;;;8.18;4.83;;;;;;;5.93;77.20;97064.26;1775063;79;21394;-81
2021/10/18 02:47:16;;;;;;;7.20;5.80;;;;;;;5.93;77.23;97057.80;1751861;79;21071;-81
2021/10/18 02:49:44;;;;;;;8.60;5.37;;;;;;;5.87;77.38;97048.02;1773677;78;21075;-81
2021/10/18 02:52:09;;;;;;;8.10;5.55;;;;;;;5.92;77.49;97057.47;1781553;78;21445;-81
2021/10/18 02:54:35;;;;;;;6.67;5.00;;;;;;;5.94;77.66;97056.04;1749363;79;21146;-81
2021/10/18 02:57:03;;;;;;;10.90;4.50;;;;;;;5.94;77.72;97058.63;1809516;77;21088;-81
2021/10/18 02:59:28;;;;;;;8.95;4.03;;;;;;;5.95;77.74;97057.19;1774167;77;21159;-81
2021/10/18 03:01:54;;;;;;;5.72;4.70;;;;;;;5.98;77.71;97056.91;1802848;77;21064;-81
2021/10/18 03:04:20;;;;;;;7.92;5.60;;;;;;;6.04;77.72;97063.31;1788998;77;21425;-81
2021/10/18 03:06:46;;;;;;;8.28;5.40;;;;;;;6.08;77.71;97067.23;1767671;78;21146;-82
2021/10/18 03:09:12;;;;;;;7.92;5.15;;;;;;;6.12;77.82;97063.42;1798694;77;21099;-81
2021/10/18 03:11:38;;;;;;;9.20;5.47;;;;;;;6.15;77.95;97054.12;1761540;76;21050;-81
2021/10/18 03:14:04;;;;;;;8.80;5.12;;;;;;;6.17;78.04;97056.08;1795767;77;21062;-81
2021/10/18 03:16:31;;;;;;;7.97;4.58;;;;;;;6.19;78.11;97061.95;1785158;77;21486;-81
2021/10/18 03:18:57;;;;;;;6.70;4.12;;;;;;;6.24;78.17;97064.92;1771497;78;21104;-81
2021/10/18 03:21:23;;;;;;;5.75;4.42;;;;;;;6.29;77.96;97069.18;1735407;79;21034;-81
2021/10/18 03:23:49;;;;;;;6.90;4.87;;;;;;;6.36;78.08;97080.27;1816410;77;21085;-81
2021/10/18 03:26:15;;;;;;;6.08;4.50;;;;;;;6.41;78.00;97075.01;1768600;79;21064;-81
2021/10/18 03:28:42;;;;;;;6.28;5.35;;;;;;;6.43;78.08;97070.52;1771508;79;21134;-81
2021/10/18 03:31:08;;;;;;;7.45;4.70;;;;;;;6.43;77.96;97065.36;1805133;77;21109;-81
2021/10/18 03:33:35;;;;;;;8.25;4.30;;;;;;;6.44;77.83;97067.46;1767185;79;21315;-81
2021/10/18 03:36:05;;;;;;;5.60;3.72;;;;;;;6.46;77.70;97067.66;1741165;80;21512;-82
2021/10/18 03:38:31;;;;;;;6.17;4.25;;;;;;;6.51;77.62;97066.78;1756396;79;21058;-81
2021/10/18 03:40:57;;;;;;;6.70;4.53;;;;;;;6.55;77.59;97061.67;1779275;76;21036;-81
2021/10/18 03:43:23;;;;;;;7.90;4.47;;;;;;;6.58;77.69;97065.73;1797462;78;21416;-81
2021/10/18 03:45:48;;;;;;;8.53;4.75;;;;;;;6.62;77.78;97072.23;1773438;79;21177;-81
2021/10/18 03:48:14;;;;;;;5.37;4.15;;;;;;;6.65;77.86;97075.83;1771946;79;21241;-81
2021/10/18 03:50:41;;;;;;;7.80;3.83;;;;;;;6.66;77.82;97074.06;1772356;79;21077;-81
2021/10/18 03:53:07;;;;;;;5.00;3.70;;;;;;;6.66;77.86;97069.70;1755613;80;21054;-82
2021/10/18 03:55:33;;;;;;;5.20;3.10;;;;;;;6.70;77.65;97071.55;1794474;77;21136;-81
2021/10/18 03:57:58;;;;;;;4.60;3.52;;;;;;;6.72;77.67;97074.33;1777188;78;21119;-81
2021/10/18 04:00:24;;;;;;;3.77;3.35;;;;;;;6.75;77.46;97068.06;1748724;80;21502;-81
2021/10/18 04:02:50;;;;;;;5.92;4.08;;;;;;;6.77;77.43;97080.36;1741854;80;21125;-81
2021/10/18 04:05:16;;;;;;;6.37;3.33;;;;;;;6.78;77.57;97087.95;1713132;82;21046;-81
2021/10/18 04:07:46;;;;;;;6.12;3.80;;;;;;;6.79;77.60;97083.13;1736501;80;21097;-81
2021/10/18 04:10:10;;;;;;;5.50;4.15;;;;;;;6.79;77.76;97087.00;1771686;78;21095;-82
2021/10/18 04:12:35;;;;;;;5.33;4.17;;;;;;;6.81;77.59;97094.13;1827911;76;21185;-82
2021/10/18 04:15:01;;;;;;;4.25;3.10;;;;;;;6.84;77.01;97094.35;1806944;76;21036;-81
2021/10/18 04:17:27;;;;;;;4.97;3.90;;;;;;;6.88;77.23;97095.69;1754078;77;21185;-81
2021/10/18 04:19:52;;;;;;;5.85;3.67;;;;;;;6.88;77.05;97101.67;1764121;79;21052;-81
2021/10/18 04:22:19;;;;;;;5.50;3.90;;;;;;;6.93;76.99;97106.41;1783336;79;21094;-81
2021/10/18 04:24:44;;;;;;;6.10;3.80;;;;;;;6.93;77.01;97112.39;1795464;79;21492;-81
2021/10/18 04:27:10;;;;;;;5.90;3.77;;;;;;;6.94;77.14;97114.49;1764991;79;22148;-81
2021/10/18 04:29:36;;;;;;;7.15;3.50;;;;;;;6.93;76.98;97108.99;1799626;78;21039;-81
2021/10/18 04:32:02;;;;;;;6.95;4.15;;;;;;;6.92;76.87;97116.41;1789276;79;21044;-81
2021/10/18 04:34:28;;;;;;;4.80;3.10;;;;;;;6.91;76.90;97118.17;1789269;77;21039;-81
2021/10/18 04:36:54;;;;;;;4.60;3.50;;;;;;;6.93;76.97;97114.97;1752450;79;21446;-81
2021/10/18 04:39:20;;;;;;;5.67;3.67;;;;;;;6.97;76.93;97110.33;1786621;77;21059;-81
2021/10/18 04:44:11;;;;;;;5.87;3.75;;;;;;;6.97;77.22;97114.69;1798770;77;21059;-81
2021/10/18 04:46:37;;;;;;;7.75;4.92;;;;;;;6.95;77.19;97120.47;1806338;78;21087;-81
2021/10/18 04:49:03;;;;;;;4.75;3.62;;;;;;;6.96;77.25;97124.20;1795387;77;21095;-81
2021/10/18 04:51:28;;;;;;;6.20;4.05;;;;;;;6.96;77.05;97125.98;1805664;77;21091;-81
2021/10/18 04:53:54;;;;;;;8.78;4.70;;;;;;;6.96;76.91;97126.79;1780461;78;21036;-81
2021/10/18 04:56:20;;;;;;;5.25;3.80;;;;;;;6.99;76.92;97138.13;1805323;77;21185;-81
2021/10/18 04:58:46;;;;;;;4.20;3.77;;;;;;;7.03;76.83;97136.91;1806332;77;21122;-81
2021/10/18 05:01:12;;;;;;;6.17;5.15;;;;;;;7.05;76.92;97147.92;1750631;78;21226;-81
2021/10/18 05:03:37;;;;;;;8.05;6.03;;;;;;;7.07;76.40;97153.76;1735578;80;21135;-82
2021/10/18 05:06:03;;;;;;;11.45;7.72;;;;;;;7.11;76.28;97153.81;1774897;79;21765;-81
2021/10/18 05:08:29;;;;;;;11.68;8.45;;;;;;;7.10;75.56;97156.53;1733725;81;21467;-81
2021/10/18 05:10:56;;;;;;;19.00;10.48;;;;;;;7.09;75.35;97157.49;1782537;77;21074;-82
2021/10/18 05:13:22;;;;;;;14.98;10.43;;;;;;;7.06;74.81;97159.07;1803137;76;21086;-81
2021/10/18 05:15:52;;;;;;;15.10;9.85;;;;;;;7.04;74.91;97163.09;1782775;79;21064;-81
2021/10/18 05:18:16;;;;;;;21.55;14.85;;;;;;;7.04;75.55;97164.38;1765584;78;21074;-81
2021/10/18 05:20:41;;;;;;;27.02;19.37;;;;;;;7.06;75.23;97161.17;1747125;79;21076;-81
2021/10/18 05:23:07;;;;;;;19.90;14.43;;;;;;;7.07;74.72;97165.39;1724789;81;21434;-81
2021/10/18 05:25:33;;;;;;;28.70;17.87;;;;;;;7.08;74.01;97166.20;1796641;78;21055;-82
2021/10/18 05:30:25;;;;;;;56.10;34.20;;;;;;;7.12;73.99;97180.47;1802737;78;21098;-81
2021/10/18 05:32:52;;;;;;;48.17;24.92;;;;;;;7.11;74.11;97189.98;1782504;77;21045;-82
2021/10/18 05:35:18;;;;;;;52.85;25.80;;;;;;;7.10;73.66;97187.07;1788502;77;21466;-81
2021/10/18 05:37:45;;;;;;;36.40;20.12;;;;;;;7.05;74.16;97190.56;1806440;78;21205;-81
2021/10/18 05:40:11;;;;;;;38.95;19.40;;;;;;;7.05;74.14;97190.56;1785664;77;21186;-81
2021/10/18 05:42:37;;;;;;;26.68;17.07;;;;;;;7.05;74.25;97197.02;1779970;78;21068;-81
2021/10/18 05:45:04;;;;;;;72.72;33.60;;;;;;;7.07;73.74;97198.17;1775506;79;21373;-82
2021/10/18 05:47:30;;;;;;;106.07;45.35;;;;;;;7.05;73.81;97207.36;1751794;79;21090;-81
2021/10/18 05:49:56;;;;;;;125.42;48.25;;;;;;;7.05;74.19;97215.11;1787528;78;21548;-82
2021/10/18 05:52:24;;;;;;;109.75;43.38;;;;;;;7.06;74.31;97216.73;1736594;80;21160;-82
2021/10/18 05:54:50;;;;;;;62.83;28.27;;;;;;;7.07;74.50;97225.30;1787643;77;21106;-81
2021/10/18 05:57:15;;;;;;;102.27;41.70;;;;;;;7.06;74.64;97228.36;1789343;78;21090;-81
2021/10/18 05:59:41;;;;;;;65.40;28.57;;;;;;;7.03;74.57;97223.48;1796947;77;21466;-81
2021/10/18 06:02:07;;;;;;;77.97;34.33;;;;;;;7.04;74.66;97229.46;1796026;77;21043;-82
2021/10/18 06:04:35;;;;;;;107.70;50.98;;;;;;;7.05;74.79;97229.32;1795197;77;21156;-82
2021/10/18 06:07:00;;;;;;;93.52;43.87;;;;;;;7.08;74.89;97229.52;1777745;78;21126;-82
2021/10/18 06:09:27;;;;;;;109.25;41.55;;;;;;;7.09;75.01;97233.25;1772054;78;21556;-81
2021/10/18 06:11:53;;;;;;;156.90;53.10;;;;;;;7.11;75.13;97239.57;1798925;77;21121;-81
2021/10/18 06:14:19;;;;;;;64.07;28.95;;;;;;;7.10;75.42;97234.87;1779446;79;21097;-82
2021/10/18 06:16:44;;;;;;;36.42;19.82;;;;;;;7.10;75.59;97236.65;1761181;80;21090;-82
2021/10/18 06:19:10;;;;;;;44.60;20.72;;;;;;;7.07;75.78;97235.16;1808091;77;21121;-81
2021/10/18 06:21:36;;;;;;;48.20;24.12;;;;;;;7.06;75.93;97243.88;1753856;77;21457;-82
2021/10/18 06:24:02;;;;;;;67.58;27.50;;;;;;;7.08;76.02;97245.83;1774130;78;21178;-81
2021/10/18 06:26:27;;;;;;;57.25;25.85;;;;;;;7.12;75.97;97248.95;1793020;78;21118;-81
2021/10/18 06:28:53;;;;;;;54.30;25.45;;;;;;;7.17;76.34;97254.06;1772249;79;21128;-82
2021/10/18 06:31:20;;;;;;;74.03;31.00;;;;;;;7.21;76.55;97259.28;1778578;79;21054;-81
2021/10/18 06:33:46;;;;;;;70.50;42.95;;;;;;;7.22;76.77;97253.64;1756083;80;21382;-82
2021/10/18 06:36:12;;;;;;;54.98;24.52;;;;;;;7.22;77.03;97257.03;1729268;79;21102;-81
2021/10/18 06:38:37;;;;;;;26.60;16.75;;;;;;;7.17;77.28;97264.40;1751771;79;21421;-81
2021/10/18 06:41:03;;;;;;;24.92;16.23;;;;;;;7.15;77.54;97270.64;1815443;78;21044;-81
2021/10/18 06:43:29;;;;;;;24.95;16.97;;;;;;;7.16;77.85;97273.11;1764605;80;21145;-82
2021/10/18 06:45:55;;;;;;;68.33;32.90;;;;;;;7.16;78.26;97276.17;1751258;80;21575;-82
2021/10/18 06:50:47;;;;;;;39.30;26.55;;;;;;;7.15;79.12;97275.33;1739593;81;21128;-81
2021/10/18 06:53:16;;;;;;;36.42;20.70;;;;;;;7.15;79.37;97274.03;1753223;79;21067;-81
2021/10/18 06:55:42;;;;;;;49.05;27.48;;;;;;;7.15;79.51;97271.92;1749390;81;21138;-82
2021/10/18 06:58:08;;;;;;;30.50;19.27;;;;;;;7.16;79.85;97272.30;1741714;81;21160;-81
2021/10/18 07:00:35;;;;;;;22.10;17.23;;;;;;;7.14;80.24;97276.28;1745447;80;21421;-81
2021/10/18 07:03:01;;;;;;;25.45;18.20;;;;;;;7.11;80.23;97280.44;1740081;81;21079;-81
2021/10/18 07:05:27;;;;;;;26.93;18.07;;;;;;;7.12;80.71;97281.25;1746562;81;21040;-81
2021/10/18 07:07:53;;;;;;;28.75;17.02;;;;;;;7.09;80.88;97282.35;1740848;80;21500;-81
2021/10/18 07:10:19;;;;;;;25.55;17.17;;;;;;;7.07;81.15;97287.33;1714346;82;21107;-81
2021/10/18 07:12:46;;;;;;;17.77;14.05;;;;;;;7.09;81.45;97291.40;1742867;80;21518;-81
2021/10/18 07:15:12;;;;;;;20.88;15.08;;;;;;;7.14;81.57;97293.56;1740281;82;21074;-81
2021/10/18 07:17:39;;;;;;;24.70;16.62;;;;;;;7.16;81.65;97300.25;1752527;80;21111;-81
2021/10/18 07:20:06;;;;;;;37.20;24.55;;;;;;;7.25;81.87;97299.06;1748274;82;21439;-81
2021/10/18 07:22:48;;;;;;;36.25;22.35;;;;;;;7.31;82.01;97300.61;1785866;78;21474;-81
2021/10/18 07:25:13;;;;;;;56.73;26.42;;;;;;;7.37;82.14;97300.55;1789742;78;21041;-82
2021/10/18 07:27:39;;;;;;;47.90;25.27;;;;;;;7.40;82.03;97304.96;1765655;77;21540;-81
2021/10/18 07:30:06;;;;;;;15.60;11.97;;;;;;;7.49;82.29;97298.16;1809214;77;21147;-81
2021/10/18 07:32:33;;;;;;;15.95;12.63;;;;;;;7.52;82.07;97299.16;1752677;79;21138;-81
2021/10/18 07:34:59;;;;;;;14.33;11.40;;;;;;;7.55;82.22;97304.52;1738559;80;21079;-81
2021/10/18 07:37:28;;;;;;;34.45;23.65;;;;;;;7.55;82.21;97307.92;1741906;80;21039;-81
2021/10/18 07:39:53;;;;;;;31.02;20.12;;;;;;;7.56;82.44;97314.73;1785636;78;21059;-81
2021/10/18 07:42:19;;;;;;;31.05;18.70;;;;;;;7.59;82.66;97310.56;1830082;77;21141;-81
2021/10/18 07:44:45;;;;;;;22.45;15.78;;;;;;;7.59;82.56;97318.80;1793104;76;21488;-81
2021/10/18 07:47:12;;;;;;;22.27;17.75;;;;;;;7.61;82.61;97317.70;1786187;77;21086;-81
2021/10/18 07:49:40;;;;;;;24.18;19.02;;;;;;;7.66;82.62;97327.17;1793629;77;21106;-81
2021/10/18 07:52:04;;;;;;;25.30;19.87;;;;;;;7.66;82.66;97322.00;1788852;77;21434;-81
2021/10/18 07:54:30;;;;;;;20.52;15.38;;;;;;;7.64;82.77;97318.70;1797023;78;21160;-81
2021/10/18 07:56:57;;;;;;;19.77;17.52;;;;;;;7.64;82.88;97325.66;1764523;77;21504;-80
2021/10/18 07:59:23;;;;;;;46.63;27.73;;;;;;;7.65;83.06;97326.83;1802830;77;21203;-81
2021/10/18 08:01:49;;;;;;;25.50;16.67;;;;;;;7.69;83.14;97326.06;1758265;78;21194;-81
2021/10/18 08:04:14;;;;;;;17.52;12.68;;;;;;;7.69;83.31;97330.77;1772760;80;21079;-81
2021/10/18 08:06:40;;;;;;;16.30;13.83;;;;;;;7.69;83.25;97331.23;1774428;79;21150;-81
2021/10/18 08:09:08;;;;;;;17.17;15.30;;;;;;;7.71;83.36;97331.44;1766340;78;21151;-81
2021/10/18 08:11:34;;;;;;;17.60;12.78;;;;;;;7.75;83.62;97334.07;1757821;80;21430;-81
2021/10/18 08:14:00;;;;;;;18.70;14.70;;;;;;;7.73;83.64;97339.87;1771968;78;21413;-81
2021/10/18 08:16:27;;;;;;;17.75;13.83;;;;;;;7.70;83.69;97334.98;1753355;80;21158;-81
2021/10/18 08:18:54;;;;;;;21.17;15.53;;;;;;;7.73;83.76;97336.47;1779846;79;21047;-81
2021/10/18 08:21:19;;;;;;;18.42;15.58;;;;;;;7.80;83.84;97340.92;1768538;79;21043;-81
2021/10/18 08:23:45;;;;;;;20.32;15.15;;;;;;;7.86;83.84;97341.34;1734210;80;21073;-81
2021/10/18 08:26:11;;;;;;;17.12;12.68;;;;;;;7.86;83.75;97346.52;1765060;80;21418;-81
2021/10/18 08:28:37;;;;;;;20.12;14.07;;;;;;;7.76;83.74;97338.29;1762160;80;21074;-81
2021/10/18 08:31:03;;;;;;;19.57;14.95;;;;;;;7.74;83.93;97336.80;1764817;79;21016;-81
2021/10/18 08:33:29;;;;;;;18.35;14.50;;;;;;;7.76;83.98;97344.75;1758086;79;21458;-81
2021/10/18 08:35:54;;;;;;;22.67;15.25;;;;;;;7.81;84.15;97347.76;1751589;79;21164;-81
2021/10/18 08:45:45;;;;;;;22.90;17.07;;;;;;;7.77;84.36;97348.97;1786142;79;21042;-81
2021/10/18 08:48:10;;;;;;;22.35;15.85;;;;;;;7.76;84.31;97356.87;1746969;79;21131;-81
2021/10/18 08:50:36;;;;;;;17.37;13.45;;;;;;;7.72;84.34;97352.95;1762668;79;21118;-81
2021/10/18 08:53:03;;;;;;;13.98;10.80;;;;;;;7.73;84.53;97351.51;1773470;80;21511;-81
2021/10/18 08:55:29;;;;;;;16.20;12.95;;;;;;;7.74;84.41;97360.08;1741320;80;21083;-81
2021/10/18 08:57:55;;;;;;;16.85;12.68;;;;;;;7.74;84.48;97361.38;1764617;80;21099;-81
2021/10/18 09:00:47;;;;;;;20.27;14.23;;;;;;;7.71;84.48;97359.89;1769012;79;21175;-81
2021/10/18 09:03:23;;;;;;;19.32;14.80;;;;;;;7.69;84.63;97365.69;1769770;80;21139;-81
2021/10/18 09:05:51;;;;;;;17.95;13.70;;;;;;;7.68;84.77;97356.77;1769165;80;21059;-82
2021/10/18 09:08:48;;;;;;;16.77;12.88;;;;;;;7.71;85.01;97363.77;1753609;80;21047;-81
2021/10/18 09:11:20;;;;;;;21.68;14.85;;;;;;;7.73;84.85;97365.73;1798486;78;21095;-81
2021/10/18 09:13:57;;;;;;;16.93;13.43;;;;;;;7.72;84.78;97363.30;1767963;79;21091;-81
2021/10/18 09:16:33;;;;;;;18.27;13.80;;;;;;;7.74;85.17;97365.26;1797722;76;21053;-81
2021/10/18 09:21:35;;;;;;;17.23;14.50;;;;;;;7.72;85.28;97365.40;1809095;79;21022;-81
2021/10/18 09:24:02;;;;;;;18.50;14.78;;;;;;;7.77;85.42;97363.20;1794242;77;21093;-81
2021/10/18 09:26:28;;;;;;;18.95;15.23;;;;;;;7.77;85.53;97363.20;1820150;76;21110;-81
2021/10/18 09:28:55;;;;;;;17.52;13.88;;;;;;;7.76;85.39;97367.22;1785562;78;21086;-81
2021/10/18 09:31:21;;;;;;;21.80;16.15;;;;;;;7.74;85.61;97364.78;1813896;78;21052;-82
2021/10/18 09:33:54;;;;;;;19.42;14.85;;;;;;;7.71;85.58;97371.53;1784546;79;21058;-81
2021/10/18 09:36:24;;;;;;;20.05;15.15;;;;;;;7.76;85.90;97373.69;1764893;79;21109;-81
2021/10/18 09:38:48;;;;;;;148.10;51.95;;;;;;;7.81;85.95;97370.23;1776843;78;21180;-81
2021/10/18 09:41:14;;;;;;;38.60;21.40;;;;;;;7.82;85.69;97366.69;1772841;79;21127;-81
2021/10/18 09:43:44;;;;;;;22.22;16.42;;;;;;;7.85;85.72;97366.88;1750338;80;21143;-81
2021/10/18 10:52:34;;;;;;;19.82;16.52;;;;;;;8.26;86.28;97384.56;1748080;80;21434;-81
2021/10/18 10:55:23;;;;;;;18.62;15.13;;;;;;;8.28;86.30;97382.64;1764054;79;21145;-81
2021/10/18 10:57:53;;;;;;;20.15;16.62;;;;;;;8.30;86.24;97382.53;1825968;76;21057;-81
2021/10/18 11:00:37;;;;;;;19.07;16.45;;;;;;;8.33;86.23;97374.47;1754801;80;21493;-81
2021/10/18 11:03:36;;;;;;;18.75;15.23;;;;;;;8.35;86.24;97375.17;1784600;78;21146;-81
2021/10/18 11:06:08;;;;;;;18.17;15.28;;;;;;;8.35;86.33;97388.12;1795406;77;21033;-81
2021/10/18 11:11:17;;;;;;;17.40;15.55;;;;;;;8.24;86.21;97385.19;1796585;78;21062;-81
2021/10/18 11:13:58;;;;;;;16.62;13.30;;;;;;;8.24;86.38;97377.91;1778745;77;20998;-81
2021/10/18 11:16:29;;;;;;;16.50;14.65;;;;;;;8.27;86.31;97378.42;1755748;79;21598;-81
2021/10/18 11:18:59;;;;;;;17.52;14.58;;;;;;;8.27;86.58;97384.90;1751572;80;21190;-81
2021/10/18 11:21:29;;;;;;;19.20;16.42;;;;;;;8.30;86.77;97385.12;1800377;76;21070;-81
2021/10/18 11:24:00;;;;;;;19.45;16.48;;;;;;;8.33;86.70;97375.77;1790146;78;21104;-81
2021/10/18 11:26:29;;;;;;;18.23;16.00;;;;;;;8.35;86.68;97386.82;1780158;77;21070;-81
2021/10/18 11:28:57;;;;;;;21.50;18.55;;;;;;;8.36;86.54;97376.80;1803683;77;21189;-81
2021/10/18 11:31:28;;;;;;;17.87;15.53;;;;;;;8.36;86.56;97384.09;1805662;77;21182;-81
2021/10/18 11:34:14;;;;;;;24.12;19.37;;;;;;;8.35;86.47;97382.94;1784880;77;21410;-81
2021/10/18 11:36:46;;;;;;;26.68;22.27;;;;;;;8.28;86.30;97384.42;1809209;77;21100;-81
2021/10/18 11:39:21;;;;;;;22.50;19.57;;;;;;;8.29;86.66;97389.94;1806243;77;21528;-82
2021/10/18 11:41:49;;;;;;;23.12;16.90;;;;;;;8.33;86.78;97390.00;1773159;78;22066;-81
2021/10/18 11:44:15;;;;;;;23.32;19.62;;;;;;;8.35;86.69;97378.57;1789358;77;21059;-81
2021/10/18 11:46:41;;;;;;;20.72;17.82;;;;;;;8.33;86.54;97384.34;1788802;78;21461;-81
2021/10/18 11:49:07;;;;;;;20.88;18.67;;;;;;;8.36;86.63;97380.20;1790086;78;21014;-81
2021/10/18 11:51:32;;;;;;;21.07;18.77;;;;;;;8.39;86.85;97385.09;1781576;76;21456;-81
2021/10/18 11:53:58;;;;;;;19.55;17.15;;;;;;;8.40;87.00;97388.02;1822416;77;21141;-81
2021/10/18 11:56:24;;;;;;;17.52;15.18;;;;;;;8.42;87.04;97384.80;1830821;77;21027;-81
2021/10/18 11:58:49;;;;;;;18.77;16.17;;;;;;;8.43;86.90;97385.13;1829752;77;21026;-81
2021/10/18 12:01:16;;;;;;;19.48;16.07;;;;;;;8.45;86.74;97386.28;1821394;77;21240;-81
2021/10/18 12:03:41;;;;;;;19.17;17.00;;;;;;;8.46;86.77;97386.64;1805029;77;21441;-81
2021/10/18 12:06:09;;;;;;;18.25;15.03;;;;;;;8.47;86.95;97384.87;1792836;77;21075;-81
2021/10/18 12:08:40;;;;;;;18.73;16.32;;;;;;;8.43;86.94;97392.09;1823408;77;21143;-81
2021/10/18 12:11:12;;;;;;;16.77;14.47;;;;;;;8.38;87.03;97395.11;1808227;77;21061;-81
2021/10/18 12:13:42;;;;;;;15.55;13.88;;;;;;;8.46;87.14;97384.50;1807410;76;21150;-81
2021/10/18 12:16:20;;;;;;;16.15;14.45;;;;;;;8.54;87.40;97389.80;1793594;78;21070;-81
2021/10/18 12:18:59;;;;;;;14.70;13.05;;;;;;;8.63;87.35;97392.83;1778665;79;21042;-81
2021/10/18 12:21:39;;;;;;;16.05;14.35;;;;;;;8.65;87.10;97385.72;1800749;77;21150;-81
2021/10/18 12:24:14;;;;;;;19.20;16.73;;;;;;;8.59;87.05;97384.98;1825532;76;21082;-81
2021/10/18 12:26:46;;;;;;;17.57;15.65;;;;;;;8.53;87.00;97389.46;1820849;77;21077;-81
2021/10/18 12:29:14;;;;;;;15.55;14.03;;;;;;;8.54;87.53;97384.14;1807883;77;21117;-81
2021/10/18 12:31:53;;;;;;;18.55;16.65;;;;;;;8.55;87.19;97379.77;1802689;78;21047;-81
2021/10/18 12:34:25;;;;;;;16.62;14.83;;;;;;;8.55;87.35;97382.36;1766068;78;21545;-81
2021/10/18 12:37:08;;;;;;;17.73;15.83;;;;;;;8.60;87.47;97380.14;1760909;80;21055;-81
2021/10/18 12:39:49;;;;;;;19.73;17.30;;;;;;;8.63;87.36;97379.87;1762842;78;21137;-81
2021/10/18 12:42:27;;;;;;;19.07;15.88;;;;;;;8.60;87.46;97378.36;1760635;80;21162;-81
2021/10/18 12:45:10;;;;;;;18.92;16.10;;;;;;;8.58;87.53;97379.47;1750175;80;21062;-81
2021/10/18 12:47:38;;;;;;;17.20;15.30;;;;;;;8.60;87.93;97384.84;1740575;80;21563;-81
2021/10/18 12:50:08;;;;;;;17.12;14.87;;;;;;;8.63;87.94;97381.98;1753647;80;21151;-81
2021/10/18 12:52:37;;;;;;;13.78;11.75;;;;;;;8.68;87.80;97381.55;1758636;79;21492;-81
2021/10/18 12:57:43;;;;;;;17.37;15.08;;;;;;;8.66;87.53;97399.02;1753904;80;21110;-81
2021/10/18 13:00:11;;;;;;;17.55;15.65;;;;;;;8.69;87.69;97393.05;1744926;80;21483;-81
2021/10/18 13:02:40;;;;;;;16.10;13.70;;;;;;;8.72;88.00;97389.35;1765145;80;21024;-81
2021/10/18 13:07:58;;;;;;;16.30;14.38;;;;;;;8.68;87.75;97390.12;1769187;79;21457;-81